MA25 weather

Long Pond Seaplane Base
Brewster, Massachusetts, United States

Public forecast

Using degrees Fahrenheit for public forecast. Weather courtesy of forecast.io.

Closest aviation weather report (METAR) to Long Pond Seaplane Base

Closest report is Chatham Municipal Airport, 4.1 nm (7.7 km) SE. Retrieved 2020/04/08 23:52 UTC (54 minutes ago):

KCQX 082352Z AUTO 00000KT 10SM SCT075 07/03 A2965 RMK AO2 SLP041 T00670033 10106 20067 51027

Closest aviation forecast (TAF) to Long Pond Seaplane Base

Forecast is more than 6 hours old.

Closest forecast is Barnstable Municipal Boardman Polando Field, 10.5 nm (19.5 km) WSW. Retrieved 2020/04/08 18:36 UTC (6 hours ago):

TAF KHYA 081734Z 0818/0918 02009KT P6SM OVC030 FM081900 01009KT P6SM BKN035 FM090000 05004KT P6SM SCT120 FM091100 16009KT 4SM BR OVC040 FM091200 16010KT P6SM BKN035 FM091500 16014G21KT P6SM VCSH OVC030